Time;durP1;ratioP1;P1;durP2;ratioP2;P2;SDS_P1;SDS_P2;PMS_P1;PMS_P2;Temp;Humidity;BMP_temperature;BMP_pressure;BME280_temperature;BME280_humidity;BME280_pressure;Samples;Min_cycle;Max_cycle;Signal;HPM_P1;HPM_P2
2021/04/21 00:00:36;;;;;;;13.87;8.63;;;12.40;1.00;;;;;;5030193;28;20204;-52
2021/04/21 00:03:04;;;;;;;16.53;9.60;;;12.40;1.00;;;;;;5027565;28;20398;-52
2021/04/21 00:05:30;;;;;;;13.37;9.43;;;12.40;1.00;;;;;;5030069;28;20223;-52
2021/04/21 00:07:57;;;;;;;13.00;9.40;;;12.50;1.00;;;;;;5028824;28;20305;-53
2021/04/21 00:10:26;;;;;;;14.07;10.20;;;12.50;1.00;;;;;;5025418;28;20196;-53
2021/04/21 00:12:55;;;;;;;14.93;10.00;;;12.50;1.00;;;;;;5036766;28;20293;-52
2021/04/21 00:15:23;;;;;;;13.60;9.73;;;12.40;1.00;;;;;;5029339;28;20327;-52
2021/04/21 00:17:57;;;;;;;14.47;10.83;;;12.40;1.00;;;;;;5032284;28;20226;-52
2021/04/21 00:20:25;;;;;;;14.63;9.70;;;12.40;1.00;;;;;;5032506;28;20223;-53
2021/04/21 00:22:57;;;;;;;13.83;9.37;;;12.20;1.00;;;;;;5028118;28;20318;-52
2021/04/21 00:25:29;;;;;;;15.77;9.47;;;12.30;1.00;;;;;;5034046;28;20234;-53
2021/04/21 00:27:56;;;;;;;14.33;9.40;;;12.40;99.90;;;;;;5032520;28;20242;-52
2021/04/21 00:30:26;;;;;;;13.50;9.40;;;12.30;99.90;;;;;;5026787;28;20201;-52
2021/04/21 00:32:54;;;;;;;13.27;9.50;;;12.00;99.90;;;;;;5032743;28;20193;-53
2021/04/21 00:35:31;;;;;;;17.20;8.80;;;12.00;99.90;;;;;;5033533;28;20307;-52
2021/04/21 00:38:01;;;;;;;12.03;8.77;;;12.10;99.90;;;;;;5029991;28;20196;-52
2021/04/21 00:40:44;;;;;;;18.50;9.57;;;12.10;99.90;;;;;;5032944;28;20231;-52
2021/04/21 00:43:23;;;;;;;13.57;9.27;;;11.90;99.90;;;;;;5034407;28;20760;-52
2021/04/21 00:46:12;;;;;;;11.77;8.40;;;12.00;99.90;;;;;;5034919;28;20206;-52
2021/04/21 00:49:01;;;;;;;18.77;10.07;;;12.10;99.90;;;;;;5028408;28;20242;-53
2021/04/21 00:51:52;;;;;;;12.27;8.77;;;12.00;99.90;;;;;;5026332;28;20593;-53
2021/04/21 00:54:41;;;;;;;16.33;9.63;;;12.10;1.00;;;;;;5038115;28;20581;-52
2021/04/21 00:57:33;;;;;;;16.70;10.60;;;12.00;1.00;;;;;;5031858;28;20210;-53
2021/04/21 01:00:10;;;;;;;14.23;10.50;;;11.90;99.90;;;;;;5030229;28;20563;-53
2021/04/21 01:02:41;;;;;;;19.87;11.30;;;11.70;1.00;;;;;;5027386;28;20321;-52
2021/04/21 01:05:15;;;;;;;17.50;11.60;;;11.90;1.00;;;;;;5031594;28;20235;-52
2021/04/21 01:07:45;;;;;;;21.37;12.20;;;11.70;1.00;;;;;;5032318;28;20198;-52
2021/04/21 01:10:14;;;;;;;16.97;11.70;;;11.70;1.00;;;;;;5032783;28;20283;-53
2021/04/21 01:12:44;;;;;;;24.07;12.97;;;11.70;1.00;;;;;;5034640;28;20654;-53
2021/04/21 01:15:13;;;;;;;17.77;12.07;;;11.60;1.00;;;;;;5033097;28;20354;-53
2021/04/21 01:17:41;;;;;;;16.93;12.03;;;11.60;1.00;;;;;;5032816;28;20306;-53
2021/04/21 01:20:14;;;;;;;16.73;11.20;;;11.60;1.00;;;;;;5029987;28;20290;-52
2021/04/21 01:23:02;;;;;;;15.30;10.80;;;11.60;99.90;;;;;;5025957;28;20257;-52
2021/04/21 01:26:06;;;;;;;19.93;12.57;;;11.40;99.90;;;;;;5029950;28;20236;-52
2021/04/21 01:28:35;;;;;;;19.37;11.43;;;11.60;99.90;;;;;;5033437;28;20289;-52
2021/04/21 01:31:02;;;;;;;16.80;11.40;;;11.40;99.90;;;;;;5029740;28;20541;-52
2021/04/21 01:33:29;;;;;;;14.60;11.27;;;11.50;99.90;;;;;;5033806;28;20234;-52
2021/04/21 01:36:04;;;;;;;15.50;11.20;;;11.60;99.90;;;;;;5024417;28;20301;-52
2021/04/21 01:38:32;;;;;;;17.37;12.07;;;11.60;99.90;;;;;;5035495;28;20500;-53
2021/04/21 01:41:05;;;;;;;20.60;12.83;;;11.30;1.00;;;;;;5024990;28;20283;-52
2021/04/21 01:43:35;;;;;;;16.47;11.60;;;11.30;1.00;;;;;;5029211;28;20310;-52
2021/04/21 01:46:04;;;;;;;17.20;12.53;;;11.30;99.90;;;;;;5027191;28;20287;-52
2021/04/21 01:48:34;;;;;;;16.90;11.53;;;11.20;1.00;;;;;;5025562;28;20598;-52
2021/04/21 01:51:30;;;;;;;15.77;10.97;;;11.00;1.00;;;;;;5034160;28;20195;-52
2021/04/21 01:54:13;;;;;;;17.00;12.27;;;11.10;1.00;;;;;;5032922;28;20258;-52
2021/04/21 01:56:51;;;;;;;15.90;11.93;;;11.10;1.00;;;;;;5033246;28;20203;-52
2021/04/21 01:59:26;;;;;;;18.47;11.50;;;10.90;1.00;;;;;;5032518;28;20340;-52
2021/04/21 02:02:20;;;;;;;18.27;12.10;;;10.90;1.00;;;;;;5037184;28;20195;-52
2021/04/21 02:05:16;;;;;;;18.83;12.77;;;11.00;1.00;;;;;;5039550;28;20586;-52
2021/04/21 02:08:04;;;;;;;19.97;12.50;;;10.80;50.80;;;;;;5035181;28;20323;-52
2021/04/21 02:10:35;;;;;;;18.50;12.50;;;10.70;99.90;;;;;;5038336;28;20625;-52
2021/04/21 02:13:18;;;;;;;22.57;12.50;;;10.70;99.90;;;;;;5039158;28;20241;-52
2021/04/21 02:16:10;;;;;;;16.97;12.97;;;10.50;1.00;;;;;;5032286;28;20614;-52
2021/04/21 02:18:52;;;;;;;20.13;13.17;;;10.60;1.00;;;;;;5035807;28;20229;-52
2021/04/21 02:21:24;;;;;;;20.43;13.13;;;10.60;1.00;;;;;;5032255;28;20256;-52
2021/04/21 02:24:17;;;;;;;19.53;12.90;;;10.60;1.00;;;;;;5030072;28;20207;-52
2021/04/21 02:26:53;;;;;;;18.03;13.43;;;10.50;1.00;;;;;;5031745;28;20698;-53
2021/04/21 02:29:40;;;;;;;20.03;13.17;;;10.80;1.00;;;;;;5037450;28;20622;-52
2021/04/21 02:32:31;;;;;;;21.93;15.07;;;10.90;1.00;;;;;;5033932;28;20294;-52
2021/04/21 02:35:07;;;;;;;21.77;14.70;;;11.00;1.00;;;;;;5029669;28;20237;-53
2021/04/21 02:37:45;;;;;;;21.63;13.87;;;10.90;1.00;;;;;;5033061;28;20206;-52
2021/04/21 02:40:38;;;;;;;21.13;13.90;;;10.90;1.00;;;;;;5028824;28;20251;-51
2021/04/21 02:43:24;;;;;;;23.00;14.83;;;10.90;1.00;;;;;;5029660;28;20275;-51
2021/04/21 02:46:06;;;;;;;20.67;14.40;;;11.00;1.00;;;;;;5033431;28;20231;-51
2021/04/21 02:48:59;;;;;;;20.60;15.60;;;11.10;1.00;;;;;;5034748;28;20298;-51
2021/04/21 02:52:04;;;;;;;25.13;15.60;;;11.10;1.00;;;;;;5030922;28;20260;-52
2021/04/21 02:54:51;;;;;;;25.10;16.13;;;10.90;1.00;;;;;;5026852;28;20205;-51
2021/04/21 02:57:38;;;;;;;25.03;16.17;;;10.80;99.90;;;;;;5029629;28;20681;-51
2021/04/21 03:00:06;;;;;;;23.90;15.00;;;10.70;99.90;;;;;;5037955;28;20235;-52
2021/04/21 03:02:43;;;;;;;27.27;16.90;;;10.70;99.90;;;;;;5028784;28;21055;-51
2021/04/21 03:05:21;;;;;;;27.07;17.40;;;10.60;99.90;;;;;;5031159;28;20274;-51
2021/04/21 03:07:59;;;;;;;24.43;16.23;;;10.70;99.90;;;;;;5028441;28;20310;-51
2021/04/21 03:10:31;;;;;;;24.93;17.03;;;10.50;1.00;;;;;;5031362;28;20615;-51
2021/04/21 03:13:18;;;;;;;23.97;16.80;;;10.80;1.00;;;;;;5032115;28;20206;-52
2021/04/21 03:15:52;;;;;;;23.23;16.70;;;10.80;99.90;;;;;;5034465;28;20204;-51
2021/04/21 03:18:20;;;;;;;23.07;16.73;;;10.90;99.90;;;;;;5037721;28;20207;-51
2021/04/21 03:21:09;;;;;;;26.00;17.80;;;10.90;1.00;;;;;;5028337;28;20234;-51
2021/04/21 03:23:40;;;;;;;26.13;17.10;;;10.70;1.00;;;;;;5042440;28;20287;-51
2021/04/21 03:26:07;;;;;;;25.17;18.23;;;10.90;99.90;;;;;;5035376;28;20226;-52
2021/04/21 03:28:38;;;;;;;28.50;18.27;;;10.80;1.00;;;;;;5038971;28;20851;-51
2021/04/21 03:31:08;;;;;;;27.60;17.50;;;10.90;1.00;;;;;;5030047;28;20634;-51
2021/04/21 03:33:40;;;;;;;24.33;17.60;;;10.70;1.00;;;;;;5037203;28;20207;-51
2021/04/21 03:36:07;;;;;;;25.03;17.73;;;10.80;1.00;;;;;;5028145;28;20246;-52
2021/04/21 03:38:34;;;;;;;28.70;17.60;;;10.60;1.00;;;;;;5038714;28;20216;-54
2021/04/21 03:41:01;;;;;;;27.13;19.37;;;10.90;1.00;;;;;;5032899;28;20614;-52
2021/04/21 03:43:28;;;;;;;30.63;20.10;;;10.80;1.00;;;;;;5037009;28;20273;-51
2021/04/21 03:45:55;;;;;;;27.80;18.63;;;10.70;1.00;;;;;;5031463;28;20218;-51
2021/04/21 03:48:22;;;;;;;26.37;18.37;;;10.80;1.00;;;;;;5033855;28;20208;-51
2021/04/21 03:50:52;;;;;;;28.13;19.00;;;10.80;1.00;;;;;;5028067;28;20233;-52
2021/04/21 03:53:23;;;;;;;27.37;19.57;;;10.60;1.00;;;;;;5027237;28;20264;-51
2021/04/21 03:55:55;;;;;;;28.00;19.90;;;10.50;1.00;;;;;;5036937;28;20233;-52
2021/04/21 03:58:24;;;;;;;25.87;18.67;;;10.40;1.00;;;;;;5032747;28;20219;-51
2021/04/21 04:00:59;;;;;;;26.57;19.87;;;10.20;1.00;;;;;;5028333;28;20230;-51
2021/04/21 04:03:27;;;;;;;30.60;21.53;;;10.30;1.00;;;;;;5038842;28;20573;-52
2021/04/21 04:06:02;;;;;;;27.93;20.23;;;10.30;1.00;;;;;;5034464;28;20242;-51
2021/04/21 04:08:38;;;;;;;27.83;20.03;;;10.30;1.00;;;;;;5029625;28;20200;-51
2021/04/21 04:11:06;;;;;;;35.50;19.60;;;10.20;1.00;;;;;;5030949;28;20201;-51
2021/04/21 04:13:37;;;;;;;31.70;19.50;;;10.20;1.00;;;;;;5034260;28;20626;-51
2021/04/21 04:16:07;;;;;;;32.47;20.43;;;10.40;1.00;;;;;;5031441;28;20282;-51
2021/04/21 04:18:34;;;;;;;28.37;19.57;;;10.30;1.00;;;;;;5034763;28;20669;-52
2021/04/21 04:21:05;;;;;;;32.33;21.10;;;10.30;1.00;;;;;;5037124;28;20312;-51
2021/04/21 04:23:34;;;;;;;31.83;20.70;;;10.10;1.00;;;;;;5034365;28;20303;-52
2021/04/21 04:26:04;;;;;;;32.20;20.27;;;10.20;1.00;;;;;;5028789;28;20188;-51
2021/04/21 04:28:33;;;;;;;31.30;20.70;;;10.20;1.00;;;;;;5033252;28;20324;-51
2021/04/21 04:31:02;;;;;;;33.47;22.90;;;10.30;1.00;;;;;;5029970;28;20297;-52
2021/04/21 04:33:29;;;;;;;31.27;21.70;;;10.30;1.00;;;;;;5027940;28;20265;-52
2021/04/21 04:35:56;;;;;;;33.67;21.07;;;10.30;1.00;;;;;;5026985;28;20200;-54
2021/04/21 04:38:23;;;;;;;30.13;22.17;;;10.20;1.00;;;;;;5030518;28;20592;-52
2021/04/21 04:40:54;;;;;;;28.97;20.87;;;10.40;1.00;;;;;;5030253;28;20295;-52
2021/04/21 04:43:22;;;;;;;33.17;21.37;;;10.20;1.00;;;;;;5034405;28;20319;-52
2021/04/21 04:46:03;;;;;;;29.47;20.70;;;10.20;1.00;;;;;;5031186;28;20236;-51
2021/04/21 04:48:43;;;;;;;29.83;20.73;;;10.30;1.00;;;;;;5028480;28;20657;-52
2021/04/21 04:51:11;;;;;;;29.83;21.97;;;10.30;1.00;;;;;;5029184;28;20210;-52
2021/04/21 04:53:39;;;;;;;33.47;21.60;;;10.30;1.00;;;;;;5040540;28;20861;-52
2021/04/21 04:56:07;;;;;;;31.37;21.87;;;10.20;63.60;;;;;;5029800;28;20222;-52
2021/04/21 04:58:35;;;;;;;35.07;21.80;;;10.00;95.90;;;;;;5034869;28;20507;-52
2021/04/21 05:01:06;;;;;;;32.87;22.23;;;10.00;99.90;;;;;;5028973;28;20201;-52
2021/04/21 05:03:51;;;;;;;35.70;23.50;;;10.10;99.90;;;;;;5035725;28;20681;-52
2021/04/21 05:06:28;;;;;;;34.50;22.23;;;10.20;99.90;;;;;;5023625;28;20203;-52
2021/04/21 05:08:57;;;;;;;31.37;21.80;;;10.20;54.10;;;;;;5027935;28;20718;-52
2021/04/21 05:11:25;;;;;;;33.07;22.60;;;10.20;55.80;;;;;;5031785;28;20287;-52
2021/04/21 05:13:52;;;;;;;34.70;22.93;;;10.20;99.90;;;;;;5028268;28;20227;-52
2021/04/21 05:16:25;;;;;;;31.53;23.20;;;10.20;97.00;;;;;;5030110;28;20224;-52
2021/04/21 05:19:09;;;;;;;38.67;23.93;;;10.00;99.90;;;;;;5034205;28;20258;-52
2021/04/21 05:22:12;;;;;;;36.93;23.50;;;10.30;99.90;;;;;;5030523;28;20651;-52
2021/04/21 05:24:57;;;;;;;32.00;21.90;;;10.40;45.50;;;;;;5040258;28;20207;-52
2021/04/21 05:27:40;;;;;;;35.07;23.03;;;10.50;1.00;;;;;;5031935;28;20546;-53
2021/04/21 05:30:21;;;;;;;34.23;22.57;;;10.50;1.00;;;;;;5033517;28;20661;-52
2021/04/21 05:33:06;;;;;;;36.23;23.13;;;10.40;99.90;;;;;;5038315;28;20245;-52
2021/04/21 05:35:44;;;;;;;34.33;22.23;;;10.50;99.90;;;;;;5034427;28;21519;-52
2021/04/21 05:38:38;;;;;;;29.43;21.77;;;10.70;99.90;;;;;;5036660;28;20252;-52
2021/04/21 05:41:38;;;;;;;30.30;21.13;;;10.70;99.90;;;;;;5042590;28;20205;-52
2021/04/21 05:45:03;;;;;;;39.60;22.13;;;10.80;99.90;;;;;;5032360;28;20260;-53
2021/04/21 05:47:54;;;;;;;34.00;22.20;;;10.60;99.90;;;;;;5039413;28;20230;-52
2021/04/21 05:50:43;;;;;;;31.10;20.77;;;10.60;99.90;;;;;;5017761;28;20305;-53
2021/04/21 05:53:36;;;;;;;31.20;23.53;;;10.60;99.90;;;;;;5040832;28;20254;-53
2021/04/21 05:56:40;;;;;;;32.53;22.27;;;10.60;99.90;;;;;;5032517;28;20277;-52
2021/04/21 05:59:09;;;;;;;32.70;22.47;;;10.60;99.90;;;;;;5041069;28;20220;-53
2021/04/21 06:01:40;;;;;;;32.93;21.43;;;10.80;99.90;;;;;;5031912;28;20192;-52
2021/04/21 06:04:08;;;;;;;37.10;22.97;;;10.50;99.90;;;;;;5032406;28;20268;-53
2021/04/21 06:06:34;;;;;;;32.63;22.60;;;10.70;99.90;;;;;;5030478;28;20293;-52
2021/04/21 06:09:08;;;;;;;32.80;19.80;;;10.60;99.90;;;;;;5034037;28;20325;-52
2021/04/21 06:11:34;;;;;;;34.47;21.17;;;10.70;99.90;;;;;;5033287;28;20254;-53
2021/04/21 06:14:07;;;;;;;34.73;22.77;;;10.80;99.90;;;;;;5034169;28;20216;-53
2021/04/21 06:16:35;;;;;;;33.40;21.87;;;11.00;99.90;;;;;;5032608;28;20361;-53
2021/04/21 06:19:08;;;;;;;32.40;21.83;;;11.00;99.90;;;;;;5028945;28;20634;-53
2021/04/21 06:21:39;;;;;;;32.47;21.60;;;10.90;99.90;;;;;;5029912;28;20214;-53
2021/04/21 06:24:26;;;;;;;32.63;21.43;;;10.90;99.90;;;;;;5039353;28;20221;-53
2021/04/21 06:27:10;;;;;;;29.63;21.60;;;11.10;99.90;;;;;;5032186;28;20223;-53
2021/04/21 06:29:37;;;;;;;29.60;19.63;;;11.20;99.90;;;;;;5037806;28;20202;-53
2021/04/21 06:32:06;;;;;;;28.00;20.13;;;11.10;99.90;;;;;;5038578;28;20648;-52
2021/04/21 06:34:33;;;;;;;30.77;20.53;;;11.40;99.90;;;;;;5038188;28;20221;-53
2021/04/21 06:37:00;;;;;;;29.80;19.83;;;11.20;99.90;;;;;;5024631;28;20631;-53
2021/04/21 06:39:29;;;;;;;29.07;20.47;;;11.40;99.90;;;;;;5034074;28;20195;-53
2021/04/21 06:42:00;;;;;;;28.57;19.23;;;11.80;99.90;;;;;;5033543;28;20261;-53
2021/04/21 06:44:46;;;;;;;28.10;20.13;;;11.80;99.90;;;;;;5029556;28;20215;-52
2021/04/21 06:47:19;;;;;;;30.70;20.13;;;12.10;99.90;;;;;;5028402;28;20196;-53
2021/04/21 06:49:56;;;;;;;25.80;19.53;;;12.30;99.90;;;;;;5036721;28;20281;-53
2021/04/21 06:52:23;;;;;;;28.63;20.20;;;12.30;99.90;;;;;;5034586;28;20227;-53
2021/04/21 06:55:10;;;;;;;27.17;20.53;;;12.30;99.90;;;;;;5030318;28;20254;-53
2021/04/21 06:57:38;;;;;;;27.43;20.70;;;12.00;99.90;;;;;;5032629;28;20232;-53
2021/04/21 07:00:08;;;;;;;25.73;19.73;;;12.00;99.90;;;;;;5036729;28;20401;-53
2021/04/21 07:02:43;;;;;;;27.90;20.40;;;12.30;99.90;;;;;;5034570;28;20636;-53
2021/04/21 07:05:32;;;;;;;26.60;19.70;;;12.20;99.90;;;;;;5031399;28;20336;-53
2021/04/21 07:08:01;;;;;;;24.53;19.90;;;12.20;99.90;;;;;;5024170;28;20195;-53
2021/04/21 07:10:27;;;;;;;29.13;19.20;;;12.00;99.90;;;;;;5027450;28;20281;-53
2021/04/21 07:12:54;;;;;;;29.47;18.57;;;12.00;99.90;;;;;;5038038;28;20219;-53
2021/04/21 07:15:21;;;;;;;30.33;20.03;;;11.80;99.90;;;;;;5034673;28;20224;-53
2021/04/21 07:17:49;;;;;;;26.83;18.23;;;11.90;99.90;;;;;;5033037;28;20206;-53
2021/04/21 07:20:16;;;;;;;27.00;16.73;;;12.10;99.90;;;;;;5037244;28;20672;-53
2021/04/21 07:22:45;;;;;;;27.87;18.90;;;12.00;99.90;;;;;;5032501;28;20251;-53
2021/04/21 07:25:14;;;;;;;23.03;17.77;;;12.00;99.90;;;;;;5028285;28;20223;-53
2021/04/21 07:27:44;;;;;;;27.53;18.67;;;12.00;99.90;;;;;;5034554;28;20322;-53
2021/04/21 07:30:12;;;;;;;22.70;17.43;;;12.10;99.90;;;;;;5031958;28;20203;-53
2021/04/21 07:32:45;;;;;;;23.03;16.47;;;12.40;99.90;;;;;;5036960;28;20247;-53
2021/04/21 07:35:20;;;;;;;23.20;16.07;;;12.50;99.90;;;;;;5034505;28;20590;-53
2021/04/21 07:37:49;;;;;;;19.57;14.80;;;12.60;99.90;;;;;;5033690;28;20231;-53
2021/04/21 07:40:36;;;;;;;18.17;14.10;;;12.60;99.90;;;;;;5034745;28;20210;-53
2021/04/21 07:43:11;;;;;;;22.67;14.07;;;12.80;99.90;;;;;;5037313;28;20238;-53
2021/04/21 07:45:41;;;;;;;16.40;12.07;;;12.80;99.90;;;;;;5036362;28;20221;-53
2021/04/21 07:48:35;;;;;;;20.07;12.77;;;13.10;99.90;;;;;;5039631;28;20229;-53
2021/04/21 07:51:17;;;;;;;19.63;12.23;;;13.00;99.90;;;;;;5032993;28;20219;-53
2021/04/21 07:53:52;;;;;;;15.90;11.80;;;13.10;99.90;;;;;;5034363;28;20692;-53
2021/04/21 07:56:21;;;;;;;14.63;12.17;;;13.50;99.90;;;;;;5033054;28;20226;-53
2021/04/21 07:58:47;;;;;;;18.17;11.57;;;13.70;99.90;;;;;;5028572;28;20273;-53
2021/04/21 08:01:14;;;;;;;17.43;11.97;;;13.90;98.00;;;;;;5027384;28;20207;-53
2021/04/21 08:03:41;;;;;;;15.17;10.90;;;13.70;98.90;;;;;;5033337;28;20300;-53
2021/04/21 08:06:08;;;;;;;17.17;11.37;;;13.80;97.20;;;;;;5037513;28;20780;-53
2021/04/21 08:08:36;;;;;;;18.20;11.37;;;14.10;98.60;;;;;;5035580;28;20283;-53
2021/04/21 08:11:05;;;;;;;16.17;10.67;;;14.40;98.40;;;;;;5035670;28;20257;-53
2021/04/21 08:13:39;;;;;;;14.87;10.23;;;14.30;93.90;;;;;;5033767;28;20223;-53
2021/04/21 08:16:22;;;;;;;14.57;10.77;;;14.50;83.70;;;;;;5035313;28;20588;-54
2021/04/21 08:18:49;;;;;;;12.67;9.57;;;14.50;85.00;;;;;;5033183;28;20595;-54
2021/04/21 08:21:38;;;;;;;13.33;10.00;;;14.80;85.40;;;;;;5028022;28;20649;-53
2021/04/21 08:24:19;;;;;;;12.27;9.13;;;14.60;75.90;;;;;;5031673;28;20222;-53
2021/04/21 08:26:48;;;;;;;11.30;8.77;;;15.10;70.60;;;;;;5036571;28;20251;-53
2021/04/21 08:29:16;;;;;;;13.10;9.50;;;15.30;61.10;;;;;;5033739;28;20266;-53
2021/04/21 08:31:50;;;;;;;14.23;9.00;;;15.00;60.70;;;;;;5031208;28;20200;-54
2021/04/21 08:34:18;;;;;;;14.53;9.70;;;15.10;59.50;;;;;;5036012;28;20697;-54
2021/04/21 08:36:45;;;;;;;11.07;9.27;;;15.10;61.90;;;;;;5030155;28;20349;-53
2021/04/21 08:39:11;;;;;;;13.90;9.63;;;15.30;57.90;;;;;;5034770;28;20557;-54
2021/04/21 08:41:42;;;;;;;13.63;9.20;;;15.20;60.10;;;;;;5030925;28;20296;-53
2021/04/21 08:44:10;;;;;;;12.17;8.87;;;15.60;59.80;;;;;;5028040;28;20643;-53
2021/04/21 08:46:37;;;;;;;11.57;8.60;;;15.80;55.30;;;;;;5031147;28;20301;-54
2021/04/21 08:49:06;;;;;;;10.87;8.30;;;15.50;54.50;;;;;;5033551;28;20188;-54
2021/04/21 08:51:32;;;;;;;11.50;9.60;;;15.60;53.60;;;;;;5030345;28;20206;-53
2021/04/21 08:54:04;;;;;;;13.30;9.67;;;15.50;54.50;;;;;;5031743;28;20218;-54
2021/04/21 08:56:36;;;;;;;13.83;9.63;;;15.80;52.60;;;;;;5030790;28;20727;-54
2021/04/21 08:59:07;;;;;;;10.67;9.20;;;16.40;51.80;;;;;;5034664;28;20262;-54
2021/04/21 09:01:34;;;;;;;12.13;8.97;;;15.60;47.90;;;;;;5027397;28;20200;-54
2021/04/21 09:04:00;;;;;;;13.63;9.40;;;15.80;49.90;;;;;;5031552;28;20548;-54
2021/04/21 09:06:28;;;;;;;11.33;8.77;;;15.60;49.10;;;;;;5031120;28;20232;-54
2021/04/21 09:08:57;;;;;;;20.10;11.07;;;15.70;50.20;;;;;;5032212;28;20271;-53
2021/04/21 09:11:24;;;;;;;14.50;11.10;;;15.70;53.20;;;;;;5034446;28;20652;-53
2021/04/21 09:13:51;;;;;;;12.90;9.33;;;15.80;52.10;;;;;;5025907;28;20327;-54
2021/04/21 09:16:18;;;;;;;13.97;9.67;;;16.10;52.30;;;;;;5031861;28;20302;-54
2021/04/21 09:18:45;;;;;;;12.03;9.63;;;15.90;52.00;;;;;;5039098;28;20272;-54
2021/04/21 09:21:19;;;;;;;15.00;11.40;;;15.90;51.30;;;;;;5033972;28;20641;-54
2021/04/21 09:23:47;;;;;;;15.20;10.47;;;16.30;52.40;;;;;;5031536;28;20201;-53
2021/04/21 09:26:18;;;;;;;16.63;10.67;;;16.60;51.50;;;;;;5028567;28;20236;-53
2021/04/21 09:28:48;;;;;;;19.07;11.63;;;17.00;50.40;;;;;;5030861;28;20601;-54
2021/04/21 09:31:24;;;;;;;16.57;11.40;;;16.70;52.00;;;;;;5031796;28;20245;-54
2021/04/21 09:34:15;;;;;;;15.50;12.27;;;16.90;53.90;;;;;;5031657;28;20216;-54
2021/04/21 09:36:47;;;;;;;15.50;11.23;;;16.40;54.50;;;;;;5030711;28;20216;-54
2021/04/21 09:39:16;;;;;;;18.20;11.67;;;16.90;55.10;;;;;;5027981;28;20244;-54
2021/04/21 09:41:44;;;;;;;15.10;11.37;;;17.20;50.30;;;;;;5030498;28;20578;-54
2021/04/21 09:44:24;;;;;;;14.57;11.53;;;16.50;52.70;;;;;;5036743;28;20333;-54
2021/04/21 09:46:51;;;;;;;17.57;11.07;;;17.00;51.70;;;;;;5029490;28;20221;-53
2021/04/21 09:49:27;;;;;;;16.30;10.77;;;17.20;52.50;;;;;;5033195;28;20202;-54
2021/04/21 09:51:56;;;;;;;17.17;11.60;;;17.20;51.00;;;;;;5035077;28;20296;-54
2021/04/21 09:54:36;;;;;;;24.33;12.67;;;16.80;52.80;;;;;;5031283;28;20259;-54
2021/04/21 09:57:17;;;;;;;17.10;11.63;;;16.80;56.30;;;;;;5030374;28;20201;-54
2021/04/21 09:59:57;;;;;;;23.77;12.30;;;16.60;54.80;;;;;;5028494;28;20206;-53
2021/04/21 10:02:34;;;;;;;20.83;12.50;;;16.90;54.70;;;;;;5031913;28;20574;-54
2021/04/21 10:05:21;;;;;;;15.07;10.87;;;16.60;53.50;;;;;;5036659;28;20232;-54
2021/04/21 10:07:47;;;;;;;16.03;11.57;;;17.10;51.90;;;;;;5034728;28;20269;-54
2021/04/21 10:10:26;;;;;;;18.93;12.73;;;17.30;54.80;;;;;;5029687;28;20262;-53
2021/04/21 10:12:54;;;;;;;20.90;12.63;;;16.80;60.80;;;;;;5033351;28;20196;-54
2021/04/21 10:15:30;;;;;;;21.60;11.93;;;16.90;64.20;;;;;;5037044;28;20634;-54
2021/04/21 10:17:57;;;;;;;18.00;11.50;;;17.20;64.20;;;;;;5038035;28;20193;-54
2021/04/21 10:20:24;;;;;;;18.43;10.53;;;17.30;62.00;;;;;;5036485;28;20210;-53
2021/04/21 10:22:50;;;;;;;14.20;7.93;;;17.10;52.00;;;;;;5040343;28;20192;-54
2021/04/21 10:25:17;;;;;;;15.80;9.97;;;17.30;47.00;;;;;;5037383;28;20267;-53
2021/04/21 10:27:44;;;;;;;16.57;11.00;;;17.50;50.30;;;;;;5033948;28;20536;-54
2021/04/21 10:30:11;;;;;;;17.30;10.33;;;17.30;51.80;;;;;;5039553;28;20683;-53
2021/04/21 10:32:38;;;;;;;16.87;10.63;;;17.20;52.50;;;;;;5035251;28;20282;-53
2021/04/21 10:35:06;;;;;;;16.73;10.20;;;17.00;55.30;;;;;;5033674;28;20247;-53
2021/04/21 10:37:40;;;;;;;18.83;11.17;;;16.80;57.30;;;;;;5037492;28;20228;-53
2021/04/21 10:40:08;;;;;;;14.93;10.97;;;16.70;59.20;;;;;;5036049;28;20221;-53
2021/04/21 10:42:49;;;;;;;15.57;11.23;;;16.90;58.30;;;;;;5032987;28;20249;-53
2021/04/21 10:45:17;;;;;;;15.40;10.77;;;16.80;58.10;;;;;;5034926;28;20255;-53
2021/04/21 10:47:46;;;;;;;17.47;10.57;;;16.90;59.80;;;;;;5042844;28;20198;-53
2021/04/21 10:50:15;;;;;;;16.73;10.43;;;17.10;57.40;;;;;;5036420;28;20680;-53
2021/04/21 10:52:42;;;;;;;15.00;9.97;;;17.10;52.80;;;;;;5033363;28;21070;-51
2021/04/21 10:55:12;;;;;;;17.00;10.83;;;17.10;52.70;;;;;;5033579;28;20212;-52
2021/04/21 10:57:41;;;;;;;15.60;9.00;;;17.10;53.90;;;;;;5041035;28;20612;-54
2021/04/21 11:00:08;;;;;;;13.00;8.77;;;17.90;48.40;;;;;;5034784;28;20211;-54
2021/04/21 11:03:04;;;;;;;11.73;8.53;;;17.90;42.30;;;;;;5034081;28;20203;-52
2021/04/21 11:05:42;;;;;;;11.17;8.47;;;17.30;42.10;;;;;;5035390;28;20657;-52
2021/04/21 11:08:14;;;;;;;14.83;8.63;;;17.20;43.70;;;;;;5039305;28;20207;-52
2021/04/21 11:11:02;;;;;;;12.53;7.73;;;17.50;41.50;;;;;;5036340;28;20516;-52
2021/04/21 11:13:35;;;;;;;11.80;8.10;;;17.50;41.20;;;;;;5037062;28;20193;-51
2021/04/21 11:16:23;;;;;;;13.33;7.73;;;17.30;41.00;;;;;;5039215;28;20209;-52
2021/04/21 11:18:49;;;;;;;11.43;9.03;;;17.90;43.10;;;;;;5039552;28;20230;-52
2021/04/21 11:21:20;;;;;;;15.57;9.13;;;17.70;43.40;;;;;;5043302;28;20235;-51
2021/04/21 11:23:58;;;;;;;13.53;9.03;;;17.90;41.80;;;;;;5043369;28;20249;-54
2021/04/21 11:26:31;;;;;;;10.93;7.20;;;17.90;42.80;;;;;;5039318;28;20934;-52
2021/04/21 11:29:19;;;;;;;12.03;8.10;;;18.30;41.00;;;;;;5031077;28;20211;-52
2021/04/21 11:31:46;;;;;;;13.03;8.60;;;17.90;43.30;;;;;;5033273;28;20223;-52
2021/04/21 11:34:27;;;;;;;13.20;8.37;;;17.90;41.50;;;;;;5036920;28;20218;-52
2021/04/21 11:37:07;;;;;;;11.43;8.67;;;17.80;42.80;;;;;;5033371;28;20207;-52
2021/04/21 11:39:42;;;;;;;15.20;9.87;;;18.10;41.50;;;;;;5039871;28;20668;-52
2021/04/21 11:42:28;;;;;;;13.07;9.77;;;17.60;44.90;;;;;;5034717;28;20312;-52
2021/04/21 11:45:05;;;;;;;20.30;10.73;;;17.90;46.30;;;;;;5033426;28;20219;-55
2021/04/21 11:47:49;;;;;;;17.57;11.80;;;17.50;51.20;;;;;;5031606;28;20509;-53
2021/04/21 11:50:20;;;;;;;16.40;11.80;;;17.50;56.20;;;;;;5036555;28;20203;-52
2021/04/21 11:52:57;;;;;;;17.50;11.17;;;17.10;61.40;;;;;;5037256;28;20270;-52
2021/04/21 11:55:32;;;;;;;17.70;11.90;;;17.50;59.60;;;;;;5039814;28;20280;-53
2021/04/21 11:58:01;;;;;;;19.23;11.80;;;17.50;57.70;;;;;;5036919;28;20355;-52
2021/04/21 12:00:35;;;;;;;18.23;11.63;;;17.90;57.70;;;;;;5029974;28;20212;-53
2021/04/21 12:03:04;;;;;;;20.80;12.80;;;18.10;60.30;;;;;;5034224;28;20577;-52
2021/04/21 12:05:36;;;;;;;17.47;12.80;;;17.70;64.20;;;;;;5034643;28;20211;-52
2021/04/21 12:08:06;;;;;;;21.60;13.33;;;17.80;99.90;;;;;;5040438;28;20210;-52
2021/04/21 12:10:34;;;;;;;21.03;13.90;;;17.70;1.00;;;;;;5036163;28;20208;-52
2021/04/21 12:13:21;;;;;;;24.50;14.10;;;17.70;1.00;;;;;;5036765;28;20727;-52
2021/04/21 12:15:58;;;;;;;26.33;14.97;;;17.80;1.00;;;;;;5044363;28;20293;-52
2021/04/21 12:18:43;;;;;;;20.33;14.03;;;17.10;99.90;;;;;;5033216;28;20733;-52
2021/04/21 12:21:16;;;;;;;22.30;13.10;;;17.20;99.90;;;;;;5034465;28;20257;-52
2021/04/21 12:23:48;;;;;;;16.37;12.27;;;17.20;1.00;;;;;;5036771;28;20225;-52
2021/04/21 12:26:20;;;;;;;19.87;13.23;;;17.40;1.00;;;;;;5031352;28;20316;-52
2021/04/21 12:28:49;;;;;;;17.70;11.93;;;17.00;99.90;;;;;;5032165;28;20200;-52
2021/04/21 12:31:22;;;;;;;18.50;12.20;;;16.60;1.00;;;;;;5030836;28;20223;-52
2021/04/21 12:33:52;;;;;;;14.20;10.97;;;16.30;1.00;;;;;;5038956;28;20202;-52
2021/04/21 12:36:21;;;;;;;19.17;11.77;;;16.60;1.00;;;;;;5026607;28;20292;-52
2021/04/21 12:39:06;;;;;;;16.97;11.47;;;16.70;1.00;;;;;;5043237;28;20715;-52
2021/04/21 12:41:34;;;;;;;19.47;11.67;;;17.20;1.00;;;;;;5035256;28;20215;-52
2021/04/21 12:44:17;;;;;;;17.57;11.20;;;17.50;73.50;;;;;;5034396;28;20321;-52
2021/04/21 12:46:46;;;;;;;16.07;10.67;;;17.10;75.70;;;;;;5028502;28;20195;-52
2021/04/21 12:49:41;;;;;;;17.97;11.63;;;17.30;76.40;;;;;;5041334;28;20198;-52
2021/04/21 12:52:14;;;;;;;17.23;10.47;;;17.70;71.60;;;;;;5031723;28;20201;-52
2021/04/21 12:54:45;;;;;;;15.63;11.27;;;17.20;71.90;;;;;;5031207;28;20202;-53
2021/04/21 12:57:22;;;;;;;19.10;10.73;;;17.10;78.10;;;;;;5035802;28;20542;-52
2021/04/21 12:59:51;;;;;;;16.43;10.13;;;17.50;71.10;;;;;;5030644;28;20216;-53
2021/04/21 13:02:40;;;;;;;12.83;9.77;;;17.40;69.40;;;;;;5036408;28;20950;-54
2021/04/21 13:05:07;;;;;;;17.30;11.17;;;17.60;70.30;;;;;;5039094;28;20231;-53
2021/04/21 13:07:34;;;;;;;16.20;10.93;;;17.30;67.50;;;;;;5031663;28;20203;-53
2021/04/21 13:10:11;;;;;;;18.57;10.40;;;17.10;68.60;;;;;;5032107;28;20283;-53